Temp: 9.1°C   Baro: 1017.3mb
  Wind: 4.9mph   Dir: WSW (258°)
  Rain: 0.0mm (0.0mm/hr)
  Solar: 0W/m2  Hum: 79%
 
Bath Spa Weather Historical Data
Daily Summary for December 07, 2018 Units:  Both    English   Metric
Next Day »
Daily Weekly Monthly Yearly Custom
  High: Low: Average:
Temperature: 55.8 °F /  13.2 °C 43.3 °F /  6.3 °C 49.3 °F /  9.6 °C
Dew Point: 53.2 °F /  11.8 °C 38.3 °F /  3.5 °C 45.5 °F /  7.5 °C
Humidity: 94% 72% 87%
Wind Speed: 30mph /  48.3km/h - 8.9mph /  14.4km/h
Wind Gust: 30mph /  48.3km/h - -
Wind direction- - West
Pressure: 29.8 in /  1009.0 hPa 29.5 in /  999.5 hPa -
Precipitation: 0.69 in /  17.5 mm    
Historical Graphs
 
 
Tabular Data for December 07, 2018
Time Temperature Dew Point Pressure Wind direction Wind Speed Wind Gust Humidity Rainfall Rate (Hourly) solar
00:04 55.4 °F /  13.0 °C 53.1 °F /  11.7 °C 29.8in /  1009.0hPa WSW 2mph /  3.2km/h 4mph /  6.4km/h 92% 0in /  0.0mm 0.00 W/m2
00:09 55.4 °F /  13.0 °C 53.1 °F /  11.7 °C 29.8in /  1009.0hPa SW 13mph /  20.9km/h 13mph /  20.9km/h 92% 0in /  0.0mm 0.00 W/m2
00:14 55.4 °F /  13.0 °C 53.1 °F /  11.7 °C 29.8in /  1009.0hPa SW 14mph /  22.5km/h 14mph /  22.5km/h 92% 0in /  0.0mm 0.00 W/m2
00:19 55.4 °F /  13.0 °C 53.1 °F /  11.7 °C 29.8in /  1008.7hPa SW 4mph /  6.4km/h 6mph /  9.7km/h 92% 0in /  0.0mm 0.00 W/m2
00:24 55.2 °F /  12.9 °C 52.9 °F /  11.6 °C 29.8in /  1008.7hPa WSW 4mph /  6.4km/h 7mph /  11.3km/h 92% 0in /  0.0mm 0.00 W/m2
00:29 55.2 °F /  12.9 °C 52.9 °F /  11.6 °C 29.8in /  1008.7hPa SSW 4.9mph /  7.9km/h 7mph /  11.3km/h 92% 0in /  0.0mm 0.00 W/m2
00:34 55.2 °F /  12.9 °C 52.9 °F /  11.6 °C 29.8in /  1008.7hPa WSW 6mph /  9.7km/h 10mph /  16.1km/h 92% 0in /  0.0mm 0.00 W/m2
00:39 55.4 °F /  13.0 °C 53.1 °F /  11.7 °C 29.8in /  1008.4hPa WSW 6mph /  9.7km/h 10mph /  16.1km/h 92% 0in /  0.0mm 0.00 W/m2
00:44 55.4 °F /  13.0 °C 53.1 °F /  11.7 °C 29.8in /  1008.4hPa SW 2.9mph /  4.7km/h 10mph /  16.1km/h 92% 0in /  0.0mm 0.00 W/m2
00:49 55.2 °F /  12.9 °C 52.9 °F /  11.6 °C 29.8in /  1008.4hPa SW 4mph /  6.4km/h 13mph /  20.9km/h 92% 0in /  0.0mm 0.00 W/m2
00:54 55.4 °F /  13.0 °C 53.1 °F /  11.7 °C 29.8in /  1008.0hPa SW 11mph /  17.7km/h 15mph /  24.1km/h 92% 0in /  0.0mm 0.00 W/m2
00:58 55.4 °F /  13.0 °C 53.1 °F /  11.7 °C 29.8in /  1008.0hPa West 10.1mph /  16.3km/h 10mph /  16.1km/h 92% 0in /  0.0mm 0.00 W/m2
01:04 55.4 °F /  13.0 °C 53.1 °F /  11.7 °C 29.8in /  1008.0hPa SW 4.9mph /  7.9km/h 17mph /  27.4km/h 92% 0in /  0.0mm 0.00 W/m2
01:09 55.4 °F /  13.0 °C 53.1 °F /  11.7 °C 29.8in /  1007.7hPa SW 8.9mph /  14.3km/h 16mph /  25.7km/h 92% 0in /  0.0mm 0.00 W/m2
01:14 55.4 °F /  13.0 °C 53.1 °F /  11.7 °C 29.8in /  1007.7hPa WSW 8.9mph /  14.3km/h 12mph /  19.3km/h 92% 0in /  0.0mm 0.00 W/m2
01:19 55.4 °F /  13.0 °C 53.1 °F /  11.7 °C 29.8in /  1007.7hPa SW 2.9mph /  4.7km/h 16mph /  25.7km/h 92% 0in /  0.0mm 0.00 W/m2
01:24 55.4 °F /  13.0 °C 53.1 °F /  11.7 °C 29.8in /  1007.7hPa WSW 6.9mph /  11.1km/h 12mph /  19.3km/h 92% 0in /  0.0mm 0.00 W/m2
01:29 55.4 °F /  13.0 °C 53.1 °F /  11.7 °C 29.8in /  1007.7hPa WSW 6mph /  9.7km/h 9mph /  14.5km/h 92% 0in /  0.0mm 0.00 W/m2
01:34 55.4 °F /  13.0 °C 53.1 °F /  11.7 °C 29.7in /  1007.3hPa WSW 4mph /  6.4km/h 11mph /  17.7km/h 92% 0in /  0.0mm 0.00 W/m2
01:39 55.4 °F /  13.0 °C 53.1 °F /  11.7 °C 29.7in /  1007.3hPa WSW 2.9mph /  4.7km/h 9mph /  14.5km/h 92% 0in /  0.0mm 0.00 W/m2
01:44 55.4 °F /  13.0 °C 53.1 °F /  11.7 °C 29.7in /  1007.3hPa SW 6mph /  9.7km/h 16mph /  25.7km/h 92% 0in /  0.0mm 0.00 W/m2
01:49 55.4 °F /  13.0 °C 53.1 °F /  11.7 °C 29.7in /  1007.0hPa SSW 6.9mph /  11.1km/h 18mph /  29.0km/h 92% 0in /  0.0mm 0.00 W/m2
01:54 55.4 °F /  13.0 °C 53.1 °F /  11.7 °C 29.7in /  1007.0hPa SSW 11mph /  17.7km/h 14mph /  22.5km/h 92% 0in /  0.0mm 0.00 W/m2
01:59 55.4 °F /  13.0 °C 53.1 °F /  11.7 °C 29.7in /  1006.7hPa SW 10.1mph /  16.3km/h 10mph /  16.1km/h 92% 0in /  0.0mm 0.00 W/m2
02:04 55.4 °F /  13.0 °C 52.9 °F /  11.6 °C 29.7in /  1006.7hPa SW 4mph /  6.4km/h 14mph /  22.5km/h 91% 0in /  0.0mm 0.00 W/m2
02:09 55.4 °F /  13.0 °C 52.9 °F /  11.6 °C 29.7in /  1006.7hPa SSW 6mph /  9.7km/h 11mph /  17.7km/h 91% 0in /  0.0mm 0.00 W/m2
02:14 55.6 °F /  13.1 °C 53.1 °F /  11.7 °C 29.7in /  1006.7hPa South 4mph /  6.4km/h 14mph /  22.5km/h 91% 0in /  0.0mm 0.00 W/m2
02:19 55.6 °F /  13.1 °C 53.1 °F /  11.7 °C 29.7in /  1006.7hPa SW 8.9mph /  14.3km/h 16mph /  25.7km/h 91% 0in /  0.0mm 0.00 W/m2
02:24 55.8 °F /  13.2 °C 53.2 °F /  11.8 °C 29.7in /  1006.7hPa WSW 12.1mph /  19.5km/h 15mph /  24.1km/h 91% 0in /  0.0mm 0.00 W/m2
02:29 55.8 °F /  13.2 °C 53.2 °F /  11.8 °C 29.7in /  1006.7hPa SW 4.9mph /  7.9km/h 12mph /  19.3km/h 91% 0in /  0.0mm 0.00 W/m2
02:34 55.6 °F /  13.1 °C 53.1 °F /  11.7 °C 29.7in /  1006.3hPa WSW 10.1mph /  16.3km/h 10mph /  16.1km/h 91% 0in /  0.0mm 0.00 W/m2
02:39 55.6 °F /  13.1 °C 53.1 °F /  11.7 °C 29.7in /  1006.3hPa SW 6mph /  9.7km/h 15mph /  24.1km/h 91% 0in /  0.0mm 0.00 W/m2
02:44 55.4 °F /  13.0 °C 52.9 °F /  11.6 °C 29.7in /  1006.3hPa SW 6.9mph /  11.1km/h 11mph /  17.7km/h 91% 0.01in /  0.3mm 0.00 W/m2
02:49 55.4 °F /  13.0 °C 52.9 °F /  11.6 °C 29.7in /  1006.3hPa WSW 6.9mph /  11.1km/h 12mph /  19.3km/h 91% 0.01in /  0.3mm 0.00 W/m2
02:54 55.4 °F /  13.0 °C 52.9 °F /  11.6 °C 29.7in /  1006.0hPa WSW 6.9mph /  11.1km/h 11mph /  17.7km/h 91% 0.01in /  0.3mm 0.00 W/m2
02:59 55.4 °F /  13.0 °C 52.9 °F /  11.6 °C 29.7in /  1006.0hPa SSW 12.1mph /  19.5km/h 13mph /  20.9km/h 91% 0.01in /  0.3mm 0.00 W/m2
03:04 55.4 °F /  13.0 °C 52.9 °F /  11.6 °C 29.7in /  1006.0hPa WSW 6mph /  9.7km/h 12mph /  19.3km/h 91% 0.01in /  0.3mm 0.00 W/m2
03:09 55.4 °F /  13.0 °C 52.9 °F /  11.6 °C 29.7in /  1005.6hPa WSW 19.9mph /  32.0km/h 20mph /  32.2km/h 91% 0.01in /  0.3mm 0.00 W/m2
03:14 55.6 °F /  13.1 °C 53.1 °F /  11.7 °C 29.7in /  1005.6hPa WSW 8.9mph /  14.3km/h 16mph /  25.7km/h 91% 0.01in /  0.3mm 0.00 W/m2
03:19 55.6 °F /  13.1 °C 53.1 °F /  11.7 °C 29.7in /  1005.3hPa SW 6.9mph /  11.1km/h 10mph /  16.1km/h 91% 0.01in /  0.3mm 0.00 W/m2
03:24 55.4 °F /  13.0 °C 52.9 °F /  11.6 °C 29.7in /  1005.0hPa SW 10.1mph /  16.3km/h 16mph /  25.7km/h 91% 0.01in /  0.3mm 0.00 W/m2
03:29 55.4 °F /  13.0 °C 52.9 °F /  11.6 °C 29.7in /  1005.0hPa SW 8.9mph /  14.3km/h 15mph /  24.1km/h 91% 0.01in /  0.3mm 0.00 W/m2
03:34 55.4 °F /  13.0 °C 52.9 °F /  11.6 °C 29.7in /  1004.6hPa SSE 6mph /  9.7km/h 19mph /  30.6km/h 91% 0.01in /  0.3mm 0.00 W/m2
03:39 55.2 °F /  12.9 °C 52.7 °F /  11.5 °C 29.7in /  1004.6hPa SW 0.9mph /  1.4km/h 9mph /  14.5km/h 91% 0.01in /  0.3mm 0.00 W/m2
03:44 55.2 °F /  12.9 °C 52.7 °F /  11.5 °C 29.7in /  1004.6hPa SW 10.1mph /  16.3km/h 11mph /  17.7km/h 91% 0in /  0.0mm 0.00 W/m2
03:49 55 °F /  12.8 °C 52.5 °F /  11.4 °C 29.7in /  1004.6hPa SW 6.9mph /  11.1km/h 16mph /  25.7km/h 91% 0in /  0.0mm 0.00 W/m2
03:54 55 °F /  12.8 °C 52.5 °F /  11.4 °C 29.7in /  1004.3hPa SW 10.1mph /  16.3km/h 11mph /  17.7km/h 91% 0in /  0.0mm 0.00 W/m2
03:59 55 °F /  12.8 °C 52.7 °F /  11.5 °C 29.7in /  1004.3hPa WSW 8.1mph /  13.0km/h 17mph /  27.4km/h 92% 0in /  0.0mm 0.00 W/m2
04:04 54.9 °F /  12.7 °C 52.5 °F /  11.4 °C 29.6in /  1003.9hPa SW 8.9mph /  14.3km/h 15mph /  24.1km/h 92% 0.01in /  0.3mm 0.00 W/m2
04:09 54.7 °F /  12.6 °C 52.3 °F /  11.3 °C 29.6in /  1003.9hPa WSW 6mph /  9.7km/h 10mph /  16.1km/h 92% 0.01in /  0.3mm 0.00 W/m2
04:14 54.5 °F /  12.5 °C 52.2 °F /  11.2 °C 29.6in /  1003.9hPa SW 8.1mph /  13.0km/h 18mph /  29.0km/h 92% 0.02in /  0.5mm 0.00 W/m2
04:19 54.5 °F /  12.5 °C 52.5 °F /  11.4 °C 29.6in /  1003.9hPa SW 11mph /  17.7km/h 11mph /  17.7km/h 93% 0.02in /  0.5mm 0.00 W/m2
04:24 54.5 °F /  12.5 °C 52.5 °F /  11.4 °C 29.6in /  1003.6hPa SW 4mph /  6.4km/h 11mph /  17.7km/h 93% 0.02in /  0.5mm 0.00 W/m2
04:29 54.3 °F /  12.4 °C 52.3 °F /  11.3 °C 29.6in /  1003.3hPa South 8.1mph /  13.0km/h 20mph /  32.2km/h 93% 0.02in /  0.5mm 0.00 W/m2
04:34 54.3 °F /  12.4 °C 52.3 °F /  11.3 °C 29.6in /  1003.3hPa SW 6.9mph /  11.1km/h 15mph /  24.1km/h 93% 0.04in /  1.0mm 0.00 W/m2
04:39 54.3 °F /  12.4 °C 52.3 °F /  11.3 °C 29.6in /  1002.9hPa SW 4mph /  6.4km/h 11mph /  17.7km/h 93% 0.04in /  1.0mm 0.00 W/m2
04:44 54.3 °F /  12.4 °C 52.3 °F /  11.3 °C 29.6in /  1002.9hPa SSW 4.9mph /  7.9km/h 8mph /  12.9km/h 93% 0.04in /  1.0mm 0.00 W/m2
04:48 54.3 °F /  12.4 °C 52.3 °F /  11.3 °C 29.6in /  1002.9hPa SSW 4.9mph /  7.9km/h 17mph /  27.4km/h 93% 0.04in /  1.0mm 0.00 W/m2
04:52 54.3 °F /  12.4 °C 52.3 °F /  11.3 °C 29.6in /  1002.9hPa WSW 8.1mph /  13.0km/h 14mph /  22.5km/h 93% 0.04in /  1.0mm 0.00 W/m2
04:57 54.3 °F /  12.4 °C 52.3 °F /  11.3 °C 29.6in /  1002.6hPa SW 10.1mph /  16.3km/h 13mph /  20.9km/h 93% 0.05in /  1.3mm 0.00 W/m2
05:00 54.3 °F /  12.4 °C 52.3 °F /  11.3 °C 29.6in /  1002.6hPa WSW 8.9mph /  14.3km/h 17mph /  27.4km/h 93% 0.05in /  1.3mm 0.00 W/m2
05:09 54.5 °F /  12.5 °C 52.5 °F /  11.4 °C 29.6in /  1002.3hPa SW 4.9mph /  7.9km/h 14mph /  22.5km/h 93% 0.04in /  1.0mm 0.00 W/m2
05:14 54.5 °F /  12.5 °C 52.2 °F /  11.2 °C 29.6in /  1002.3hPa SW 4mph /  6.4km/h 14mph /  22.5km/h 92% 0.04in /  1.0mm 0.00 W/m2
05:19 54.3 °F /  12.4 °C 52 °F /  11.1 °C 29.6in /  1001.9hPa SSW 4.9mph /  7.9km/h 14mph /  22.5km/h 92% 0.04in /  1.0mm 0.00 W/m2
05:24 54.3 °F /  12.4 °C 52 °F /  11.1 °C 29.6in /  1001.9hPa SSW 19mph /  30.6km/h 19mph /  30.6km/h 92% 0.04in /  1.0mm 0.00 W/m2
05:29 54.5 °F /  12.5 °C 52.2 °F /  11.2 °C 29.6in /  1001.9hPa South 8.1mph /  13.0km/h 20mph /  32.2km/h 92% 0.06in /  1.5mm 0.00 W/m2
05:34 54.3 °F /  12.4 °C 52 °F /  11.1 °C 29.6in /  1001.6hPa WSW 6mph /  9.7km/h 12mph /  19.3km/h 92% 0.05in /  1.3mm 0.00 W/m2
05:39 54.3 °F /  12.4 °C 52.3 °F /  11.3 °C 29.6in /  1001.6hPa SW 8.1mph /  13.0km/h 15mph /  24.1km/h 93% 0.06in /  1.5mm 0.00 W/m2
05:44 54.3 °F /  12.4 °C 52.3 °F /  11.3 °C 29.6in /  1001.6hPa SW 4.9mph /  7.9km/h 18mph /  29.0km/h 93% 0.07in /  1.8mm 0.00 W/m2
05:49 54.1 °F /  12.3 °C 52.2 °F /  11.2 °C 29.6in /  1001.2hPa WSW 8.9mph /  14.3km/h 17mph /  27.4km/h 93% 0.08in /  2.0mm 0.00 W/m2
05:54 54.1 °F /  12.3 °C 52.2 °F /  11.2 °C 29.6in /  1001.2hPa South 6mph /  9.7km/h 13mph /  20.9km/h 93% 0.08in /  2.0mm 0.00 W/m2
05:59 54.1 °F /  12.3 °C 52.2 °F /  11.2 °C 29.6in /  1001.2hPa SW 13mph /  20.9km/h 21mph /  33.8km/h 93% 0.09in /  2.3mm 0.00 W/m2
06:04 54.1 °F /  12.3 °C 52.2 °F /  11.2 °C 29.6in /  1001.2hPa SW 19.9mph /  32.0km/h 20mph /  32.2km/h 93% 0.11in /  2.8mm 0.00 W/m2
06:09 54.1 °F /  12.3 °C 52.2 °F /  11.2 °C 29.6in /  1000.9hPa SW 21mph /  33.8km/h 21mph /  33.8km/h 93% 0.12in /  3.0mm 0.00 W/m2
06:14 54.1 °F /  12.3 °C 52.2 °F /  11.2 °C 29.6in /  1000.9hPa SW 8.1mph /  13.0km/h 12mph /  19.3km/h 93% 0.12in /  3.0mm 0.00 W/m2
06:19 54.1 °F /  12.3 °C 52.2 °F /  11.2 °C 29.6in /  1000.6hPa SSW 12.1mph /  19.5km/h 15mph /  24.1km/h 93% 0.13in /  3.3mm 0.00 W/m2
06:24 54.1 °F /  12.3 °C 52.2 °F /  11.2 °C 29.6in /  1000.6hPa SW 11mph /  17.7km/h 14mph /  22.5km/h 93% 0.12in /  3.0mm 0.00 W/m2
06:29 54.1 °F /  12.3 °C 52.2 °F /  11.2 °C 29.6in /  1000.6hPa SSW 6.9mph /  11.1km/h 11mph /  17.7km/h 93% 0.12in /  3.0mm 0.00 W/m2
06:34 54.1 °F /  12.3 °C 52.2 °F /  11.2 °C 29.6in /  1000.6hPa South 6.9mph /  11.1km/h 14mph /  22.5km/h 93% 0.11in /  2.8mm 0.00 W/m2
06:39 54.3 °F /  12.4 °C 52.3 °F /  11.3 °C 29.6in /  1000.6hPa SW 12.1mph /  19.5km/h 21mph /  33.8km/h 93% 0.11in /  2.8mm 0.00 W/m2
06:44 54.3 °F /  12.4 °C 52.3 °F /  11.3 °C 29.5in /  1000.2hPa SSW 4mph /  6.4km/h 25mph /  40.2km/h 93% 0.1in /  2.5mm 0.00 W/m2
06:49 54.1 °F /  12.3 °C 52.2 °F /  11.2 °C 29.5in /  1000.2hPa SSW 2.9mph /  4.7km/h 12mph /  19.3km/h 93% 0.1in /  2.5mm 0.00 W/m2
06:54 54.1 °F /  12.3 °C 52.2 °F /  11.2 °C 29.5in /  999.9hPa SW 4.9mph /  7.9km/h 11mph /  17.7km/h 93% 0.09in /  2.3mm 0.00 W/m2
06:59 54.1 °F /  12.3 °C 52.2 °F /  11.2 °C 29.5in /  999.9hPa SSW 11mph /  17.7km/h 11mph /  17.7km/h 93% 0.07in /  1.8mm 0.00 W/m2
07:04 54.1 °F /  12.3 °C 52.2 °F /  11.2 °C 29.5in /  999.9hPa SSW 11mph /  17.7km/h 14mph /  22.5km/h 93% 0.06in /  1.5mm 0.00 W/m2
07:09 54.1 °F /  12.3 °C 52.2 °F /  11.2 °C 29.5in /  999.5hPa SW 10.1mph /  16.3km/h 22mph /  35.4km/h 93% 0.06in /  1.5mm 0.00 W/m2
07:14 54.1 °F /  12.3 °C 52.2 °F /  11.2 °C 29.5in /  999.5hPa SW 6mph /  9.7km/h 12mph /  19.3km/h 93% 0.06in /  1.5mm 0.00 W/m2
07:19 54 °F /  12.2 °C 52 °F /  11.1 °C 29.5in /  999.5hPa SSW 6mph /  9.7km/h 9mph /  14.5km/h 93% 0.06in /  1.5mm 0.00 W/m2
07:24 54 °F /  12.2 °C 52 °F /  11.1 °C 29.5in /  999.5hPa WSW 6mph /  9.7km/h 16mph /  25.7km/h 93% 0.07in /  1.8mm 0.00 W/m2
07:29 54 °F /  12.2 °C 52 °F /  11.1 °C 29.5in /  999.5hPa WSW 8.1mph /  13.0km/h 14mph /  22.5km/h 93% 0.07in /  1.8mm 0.00 W/m2
07:34 53.4 °F /  11.9 °C 51.4 °F /  10.8 °C 29.5in /  1000.2hPa West 26mph /  41.8km/h 26mph /  41.8km/h 93% 0.09in /  2.3mm 0.00 W/m2
07:39 51.6 °F /  10.9 °C 49.6 °F /  9.8 °C 29.5in /  1000.2hPa West 14.1mph /  22.7km/h 23mph /  37.0km/h 93% 0.09in /  2.3mm 0.00 W/m2
07:44 50.9 °F /  10.5 °C 48.9 °F /  9.4 °C 29.5in /  1000.2hPa West 13mph /  20.9km/h 20mph /  32.2km/h 93% 0.09in /  2.3mm 0.00 W/m2
07:49 50.4 °F /  10.2 °C 48.4 °F /  9.1 °C 29.5in /  1000.2hPa West 13mph /  20.9km/h 27mph /  43.4km/h 93% 0.09in /  2.3mm 0.00 W/m2
07:54 49.8 °F /  9.9 °C 47.8 °F /  8.8 °C 29.5in /  1000.2hPa West 11mph /  17.7km/h 21mph /  33.8km/h 93% 0.09in /  2.3mm 0.00 W/m2
07:59 49.6 °F /  9.8 °C 47.7 °F /  8.7 °C 29.5in /  1000.2hPa WNW 10.1mph /  16.3km/h 15mph /  24.1km/h 93% 0.11in /  2.8mm 0.00 W/m2
08:04 49.3 °F /  9.6 °C 47.3 °F /  8.5 °C 29.6in /  1000.6hPa WNW 10.1mph /  16.3km/h 18mph /  29.0km/h 93% 0.11in /  2.8mm 0.00 W/m2
08:09 48.9 °F /  9.4 °C 46.9 °F /  8.3 °C 29.6in /  1000.6hPa WNW 12.1mph /  19.5km/h 25mph /  40.2km/h 93% 0.11in /  2.8mm 0.00 W/m2
08:14 48.7 °F /  9.3 °C 46.8 °F /  8.2 °C 29.6in /  1000.6hPa NW 8.9mph /  14.3km/h 16mph /  25.7km/h 93% 0.1in /  2.5mm 0.00 W/m2
08:19 48.6 °F /  9.2 °C 46.6 °F /  8.1 °C 29.6in /  1000.6hPa WNW 6.9mph /  11.1km/h 11mph /  17.7km/h 93% 0.1in /  2.5mm 0.00 W/m2
08:24 48.6 °F /  9.2 °C 46.6 °F /  8.1 °C 29.6in /  1000.6hPa West 6.9mph /  11.1km/h 13mph /  20.9km/h 93% 0.09in /  2.3mm 0.00 W/m2
08:29 48.6 °F /  9.2 °C 46.6 °F /  8.1 °C 29.6in /  1000.6hPa NW 10.1mph /  16.3km/h 18mph /  29.0km/h 93% 0.09in /  2.3mm 0.00 W/m2
08:34 48.6 °F /  9.2 °C 46.6 °F /  8.1 °C 29.6in /  1000.6hPa WNW 10.1mph /  16.3km/h 13mph /  20.9km/h 93% 0.06in /  1.5mm 0.00 W/m2
08:39 48.6 °F /  9.2 °C 46.9 °F /  8.3 °C 29.6in /  1000.6hPa WNW 6.9mph /  11.1km/h 13mph /  20.9km/h 94% 0.07in /  1.8mm 0.00 W/m2
08:44 48.6 °F /  9.2 °C 46.9 °F /  8.3 °C 29.6in /  1000.6hPa WNW 4mph /  6.4km/h 10mph /  16.1km/h 94% 0.07in /  1.8mm 0.00 W/m2
08:49 48.7 °F /  9.3 °C 47.1 °F /  8.4 °C 29.5in /  1000.2hPa West 6mph /  9.7km/h 13mph /  20.9km/h 94% 0.06in /  1.5mm 5.00 W/m2
08:54 48.7 °F /  9.3 °C 47.1 °F /  8.4 °C 29.5in /  1000.2hPa WNW 4mph /  6.4km/h 12mph /  19.3km/h 94% 0.07in /  1.8mm 11.00 W/m2
08:59 48.7 °F /  9.3 °C 47.1 °F /  8.4 °C 29.5in /  1000.2hPa WNW 6mph /  9.7km/h 9mph /  14.5km/h 94% 0.06in /  1.5mm 16.00 W/m2
09:04 48.7 °F /  9.3 °C 47.1 °F /  8.4 °C 29.5in /  1000.2hPa West 4.9mph /  7.9km/h 7mph /  11.3km/h 94% 0.06in /  1.5mm 11.00 W/m2
09:09 48.7 °F /  9.3 °C 47.1 °F /  8.4 °C 29.5in /  1000.2hPa WNW 11mph /  17.7km/h 11mph /  17.7km/h 94% 0.05in /  1.3mm 18.00 W/m2
09:14 48.7 °F /  9.3 °C 47.1 °F /  8.4 °C 29.5in /  1000.2hPa West 2.9mph /  4.7km/h 6mph /  9.7km/h 94% 0.04in /  1.0mm 16.00 W/m2
09:19 48.9 °F /  9.4 °C 47.3 °F /  8.5 °C 29.5in /  999.9hPa WNW 6mph /  9.7km/h 8mph /  12.9km/h 94% 0.04in /  1.0mm 33.00 W/m2
09:24 48.9 °F /  9.4 °C 47.3 °F /  8.5 °C 29.5in /  999.9hPa West 8.1mph /  13.0km/h 17mph /  27.4km/h 94% 0.04in /  1.0mm 42.00 W/m2
09:29 49.1 °F /  9.5 °C 47.5 °F /  8.6 °C 29.5in /  999.9hPa WNW 10.1mph /  16.3km/h 13mph /  20.9km/h 94% 0.03in /  0.8mm 47.00 W/m2
09:34 49.1 °F /  9.5 °C 47.5 °F /  8.6 °C 29.5in /  999.9hPa SW 8.9mph /  14.3km/h 11mph /  17.7km/h 94% 0.02in /  0.5mm 53.00 W/m2
09:39 49.3 °F /  9.6 °C 47.7 °F /  8.7 °C 29.5in /  999.9hPa WNW 10.1mph /  16.3km/h 10mph /  16.1km/h 94% 0.02in /  0.5mm 58.00 W/m2
09:40 49.1 °F /  9.5 °C 47.5 °F /  8.6 °C 29.5in /  999.9hPa WNW 6.9mph /  11.1km/h 13mph /  20.9km/h 94% 0.02in /  0.5mm 58.00 W/m2
09:54 49.1 °F /  9.5 °C 46.9 °F /  8.3 °C 29.5in /  1000.2hPa West 8.1mph /  13.0km/h 23mph /  37.0km/h 92% 0in /  0.0mm 46.00 W/m2
09:59 49.1 °F /  9.5 °C 46.6 °F /  8.1 °C 29.5in /  1000.2hPa West 14.1mph /  22.7km/h 16mph /  25.7km/h 91% 0in /  0.0mm 40.00 W/m2
10:04 49.1 °F /  9.5 °C 46.2 °F /  7.9 °C 29.5in /  1000.2hPa WNW 6mph /  9.7km/h 21mph /  33.8km/h 90% 0in /  0.0mm 125.00 W/m2
10:09 49.5 °F /  9.7 °C 46.4 °F /  8.0 °C 29.6in /  1000.6hPa WNW 8.1mph /  13.0km/h 15mph /  24.1km/h 89% 0in /  0.0mm 95.00 W/m2
10:14 49.5 °F /  9.7 °C 46.4 °F /  8.0 °C 29.6in /  1000.6hPa WNW 10.1mph /  16.3km/h 13mph /  20.9km/h 89% 0in /  0.0mm 88.00 W/m2
10:19 49.5 °F /  9.7 °C 46 °F /  7.8 °C 29.6in /  1000.6hPa NW 8.9mph /  14.3km/h 17mph /  27.4km/h 88% 0in /  0.0mm 114.00 W/m2
10:24 49.6 °F /  9.8 °C 45.9 °F /  7.7 °C 29.5in /  1000.2hPa WNW 10.1mph /  16.3km/h 18mph /  29.0km/h 87% 0in /  0.0mm 139.00 W/m2
10:29 49.8 °F /  9.9 °C 46 °F /  7.8 °C 29.5in /  1000.2hPa NW 6.9mph /  11.1km/h 16mph /  25.7km/h 87% 0in /  0.0mm 76.00 W/m2
10:34 49.6 °F /  9.8 °C 45.7 °F /  7.6 °C 29.6in /  1000.6hPa NW 8.1mph /  13.0km/h 15mph /  24.1km/h 86% 0in /  0.0mm 46.00 W/m2
10:39 49.1 °F /  9.5 °C 44.4 °F /  6.9 °C 29.6in /  1000.6hPa WNW 12.1mph /  19.5km/h 22mph /  35.4km/h 84% 0in /  0.0mm 53.00 W/m2
10:44 48.9 °F /  9.4 °C 44.1 °F /  6.7 °C 29.6in /  1000.9hPa WNW 12.1mph /  19.5km/h 20mph /  32.2km/h 83% 0in /  0.0mm 74.00 W/m2
10:49 48.6 °F /  9.2 °C 43.3 °F /  6.3 °C 29.6in /  1000.9hPa WNW 14.1mph /  22.7km/h 17mph /  27.4km/h 82% 0in /  0.0mm 37.00 W/m2
10:54 48.6 °F /  9.2 °C 43.3 °F /  6.3 °C 29.6in /  1000.9hPa NNW 12.1mph /  19.5km/h 17mph /  27.4km/h 82% 0in /  0.0mm 33.00 W/m2
10:59 48.4 °F /  9.1 °C 43.2 °F /  6.2 °C 29.6in /  1001.2hPa West 10.1mph /  16.3km/h 15mph /  24.1km/h 82% 0in /  0.0mm 49.00 W/m2
11:01 48.2 °F /  9.0 °C 43 °F /  6.1 °C 29.6in /  1001.2hPa NW 18mph /  29.0km/h 18mph /  29.0km/h 82% 0in /  0.0mm 62.00 W/m2
11:09 48.7 °F /  9.3 °C 43.2 °F /  6.2 °C 29.6in /  1001.2hPa WNW 13mph /  20.9km/h 17mph /  27.4km/h 81% 0in /  0.0mm 162.00 W/m2
11:14 48.7 °F /  9.3 °C 43.5 °F /  6.4 °C 29.6in /  1001.2hPa NW 13mph /  20.9km/h 19mph /  30.6km/h 82% 0in /  0.0mm 56.00 W/m2
11:19 48.6 °F /  9.2 °C 43 °F /  6.1 °C 29.6in /  1001.2hPa WNW 21mph /  33.8km/h 21mph /  33.8km/h 81% 0in /  0.0mm 185.00 W/m2
11:24 48.7 °F /  9.3 °C 43.2 °F /  6.2 °C 29.6in /  1001.2hPa WNW 8.1mph /  13.0km/h 18mph /  29.0km/h 81% 0in /  0.0mm 93.00 W/m2
11:29 48.7 °F /  9.3 °C 43.2 °F /  6.2 °C 29.6in /  1001.2hPa NNW 6.9mph /  11.1km/h 15mph /  24.1km/h 81% 0in /  0.0mm 185.00 W/m2
11:34 48.9 °F /  9.4 °C 43 °F /  6.1 °C 29.6in /  1001.2hPa WNW 15mph /  24.1km/h 19mph /  30.6km/h 80% 0in /  0.0mm 190.00 W/m2
11:39 48.9 °F /  9.4 °C 43 °F /  6.1 °C 29.6in /  1001.2hPa WNW 23mph /  37.0km/h 23mph /  37.0km/h 80% 0in /  0.0mm 185.00 W/m2
11:44 48.9 °F /  9.4 °C 43 °F /  6.1 °C 29.6in /  1001.2hPa WNW 10.1mph /  16.3km/h 21mph /  33.8km/h 80% 0in /  0.0mm 188.00 W/m2
11:49 48.9 °F /  9.4 °C 43 °F /  6.1 °C 29.6in /  1001.2hPa WNW 8.1mph /  13.0km/h 14mph /  22.5km/h 80% 0in /  0.0mm 192.00 W/m2
11:54 48.9 °F /  9.4 °C 42.6 °F /  5.9 °C 29.6in /  1001.2hPa WNW 6.9mph /  11.1km/h 14mph /  22.5km/h 79% 0in /  0.0mm 113.00 W/m2
11:59 48.6 °F /  9.2 °C 42.3 °F /  5.7 °C 29.6in /  1001.2hPa West 24mph /  38.6km/h 24mph /  38.6km/h 79% 0in /  0.0mm 53.00 W/m2
12:04 48.6 °F /  9.2 °C 42.3 °F /  5.7 °C 29.6in /  1001.2hPa West 15mph /  24.1km/h 17mph /  27.4km/h 79% 0in /  0.0mm 192.00 W/m2
12:09 48.7 °F /  9.3 °C 42.4 °F /  5.8 °C 29.6in /  1001.2hPa West 8.1mph /  13.0km/h 19mph /  30.6km/h 79% 0in /  0.0mm 192.00 W/m2
12:14 48.9 °F /  9.4 °C 42.6 °F /  5.9 °C 29.6in /  1001.2hPa West 12.1mph /  19.5km/h 18mph /  29.0km/h 79% 0in /  0.0mm 195.00 W/m2
12:19 48.9 °F /  9.4 °C 42.4 °F /  5.8 °C 29.6in /  1001.2hPa NNW 8.9mph /  14.3km/h 14mph /  22.5km/h 78% 0in /  0.0mm 188.00 W/m2
12:24 48.9 °F /  9.4 °C 42.4 °F /  5.8 °C 29.6in /  1001.6hPa NW 11mph /  17.7km/h 25mph /  40.2km/h 78% 0in /  0.0mm 32.00 W/m2
12:29 48.6 °F /  9.2 °C 42.3 °F /  5.7 °C 29.6in /  1001.6hPa WNW 13mph /  20.9km/h 13mph /  20.9km/h 79% 0in /  0.0mm 162.00 W/m2
12:34 48.6 °F /  9.2 °C 42.3 °F /  5.7 °C 29.6in /  1001.6hPa NW 8.9mph /  14.3km/h 16mph /  25.7km/h 79% 0in /  0.0mm 91.00 W/m2
12:39 48.4 °F /  9.1 °C 42.3 °F /  5.7 °C 29.6in /  1001.6hPa West 12.1mph /  19.5km/h 17mph /  27.4km/h 79% 0in /  0.0mm 51.00 W/m2
12:44 48.2 °F /  9.0 °C 42.1 °F /  5.6 °C 29.6in /  1001.6hPa WNW 14.1mph /  22.7km/h 17mph /  27.4km/h 79% 0in /  0.0mm 53.00 W/m2
12:49 48 °F /  8.9 °C 42.4 °F /  5.8 °C 29.6in /  1001.6hPa WNW 6.9mph /  11.1km/h 13mph /  20.9km/h 81% 0in /  0.0mm 113.00 W/m2
12:54 48.4 °F /  9.1 °C 42.8 °F /  6.0 °C 29.6in /  1001.6hPa West 22mph /  35.4km/h 22mph /  35.4km/h 81% 0in /  0.0mm 338.00 W/m2
12:59 48.7 °F /  9.3 °C 42.8 °F /  6.0 °C 29.6in /  1001.6hPa WNW 14.1mph /  22.7km/h 19mph /  30.6km/h 80% 0in /  0.0mm 213.00 W/m2
13:04 48.9 °F /  9.4 °C 43 °F /  6.1 °C 29.6in /  1001.6hPa WNW 8.9mph /  14.3km/h 20mph /  32.2km/h 80% 0in /  0.0mm 220.00 W/m2
13:09 49.3 °F /  9.6 °C 42.8 °F /  6.0 °C 29.6in /  1001.6hPa NW 10.1mph /  16.3km/h 23mph /  37.0km/h 78% 0in /  0.0mm 230.00 W/m2
13:14 49.1 °F /  9.5 °C 42.3 °F /  5.7 °C 29.6in /  1001.9hPa NW 19mph /  30.6km/h 19mph /  30.6km/h 77% 0in /  0.0mm 76.00 W/m2
13:19 48.7 °F /  9.3 °C 40.8 °F /  4.9 °C 29.6in /  1001.9hPa WNW 12.1mph /  19.5km/h 19mph /  30.6km/h 74% 0in /  0.0mm 39.00 W/m2
13:24 48.4 °F /  9.1 °C 40.1 °F /  4.5 °C 29.6in /  1001.9hPa WNW 11mph /  17.7km/h 26mph /  41.8km/h 73% 0in /  0.0mm 49.00 W/m2
13:29 48 °F /  8.9 °C 40.1 °F /  4.5 °C 29.6in /  1001.9hPa West 15mph /  24.1km/h 20mph /  32.2km/h 74% 0in /  0.0mm 79.00 W/m2
13:34 47.8 °F /  8.8 °C 40.6 °F /  4.8 °C 29.6in /  1001.9hPa NNW 16.1mph /  25.9km/h 21mph /  33.8km/h 76% 0in /  0.0mm 49.00 W/m2
13:39 47.3 °F /  8.5 °C 40.1 °F /  4.5 °C 29.6in /  1002.3hPa NW 10.1mph /  16.3km/h 18mph /  29.0km/h 76% 0in /  0.0mm 90.00 W/m2
13:44 47.3 °F /  8.5 °C 40.1 °F /  4.5 °C 29.6in /  1002.3hPa NW 6mph /  9.7km/h 22mph /  35.4km/h 76% 0in /  0.0mm 155.00 W/m2
13:49 47.7 °F /  8.7 °C 40.5 °F /  4.7 °C 29.6in /  1002.3hPa West 8.9mph /  14.3km/h 16mph /  25.7km/h 76% 0in /  0.0mm 223.00 W/m2
13:54 47.8 °F /  8.8 °C 41 °F /  5.0 °C 29.6in /  1002.3hPa West 10.1mph /  16.3km/h 23mph /  37.0km/h 77% 0in /  0.0mm 144.00 W/m2
13:59 47.8 °F /  8.8 °C 41 °F /  5.0 °C 29.6in /  1002.3hPa West 8.1mph /  13.0km/h 19mph /  30.6km/h 77% 0in /  0.0mm 128.00 W/m2
14:04 47.8 °F /  8.8 °C 41 °F /  5.0 °C 29.6in /  1002.3hPa West 19mph /  30.6km/h 19mph /  30.6km/h 77% 0in /  0.0mm 63.00 W/m2
14:09 47.8 °F /  8.8 °C 41 °F /  5.0 °C 29.6in /  1002.3hPa WNW 12.1mph /  19.5km/h 20mph /  32.2km/h 77% 0in /  0.0mm 132.00 W/m2
14:14 48 °F /  8.9 °C 40.8 °F /  4.9 °C 29.6in /  1002.3hPa West 15mph /  24.1km/h 20mph /  32.2km/h 76% 0in /  0.0mm 97.00 W/m2
14:19 48.2 °F /  9.0 °C 41 °F /  5.0 °C 29.6in /  1002.3hPa WNW 12.1mph /  19.5km/h 20mph /  32.2km/h 76% 0in /  0.0mm 105.00 W/m2
14:24 48.2 °F /  9.0 °C 41 °F /  5.0 °C 29.6in /  1002.3hPa West 13mph /  20.9km/h 22mph /  35.4km/h 76% 0in /  0.0mm 77.00 W/m2
14:29 47.8 °F /  8.8 °C 40.3 °F /  4.6 °C 29.6in /  1002.6hPa WNW 13mph /  20.9km/h 26mph /  41.8km/h 75% 0in /  0.0mm 44.00 W/m2
14:34 47.7 °F /  8.7 °C 40.5 °F /  4.7 °C 29.6in /  1002.6hPa WNW 16.1mph /  25.9km/h 20mph /  32.2km/h 76% 0in /  0.0mm 32.00 W/m2
14:39 47.3 °F /  8.5 °C 40.5 °F /  4.7 °C 29.6in /  1002.6hPa NNW 4mph /  6.4km/h 24mph /  38.6km/h 77% 0in /  0.0mm 77.00 W/m2
14:44 47.3 °F /  8.5 °C 40.5 °F /  4.7 °C 29.6in /  1002.6hPa West 11mph /  17.7km/h 14mph /  22.5km/h 77% 0in /  0.0mm 40.00 W/m2
14:49 47.1 °F /  8.4 °C 39.9 °F /  4.4 °C 29.6in /  1002.9hPa WSW 15mph /  24.1km/h 15mph /  24.1km/h 76% 0in /  0.0mm 19.00 W/m2
14:54 47.1 °F /  8.4 °C 39.6 °F /  4.2 °C 29.6in /  1002.9hPa NNW 28mph /  45.1km/h 28mph /  45.1km/h 75% 0in /  0.0mm 21.00 W/m2
14:59 46.9 °F /  8.3 °C 39 °F /  3.9 °C 29.6in /  1002.9hPa West 16.1mph /  25.9km/h 23mph /  37.0km/h 74% 0in /  0.0mm 16.00 W/m2
15:04 46.9 °F /  8.3 °C 38.3 °F /  3.5 °C 29.6in /  1002.9hPa WNW 19mph /  30.6km/h 21mph /  33.8km/h 72% 0in /  0.0mm 16.00 W/m2
15:09 46.8 °F /  8.2 °C 38.5 °F /  3.6 °C 29.6in /  1002.9hPa NW 11mph /  17.7km/h 15mph /  24.1km/h 73% 0in /  0.0mm 16.00 W/m2
15:14 46.8 °F /  8.2 °C 38.5 °F /  3.6 °C 29.6in /  1002.9hPa NW 8.9mph /  14.3km/h 22mph /  35.4km/h 73% 0in /  0.0mm 14.00 W/m2
15:19 46.6 °F /  8.1 °C 38.7 °F /  3.7 °C 29.6in /  1003.3hPa West 10.1mph /  16.3km/h 17mph /  27.4km/h 74% 0in /  0.0mm 12.00 W/m2
15:24 46.4 °F /  8.0 °C 38.8 °F /  3.8 °C 29.6in /  1003.3hPa WNW 15mph /  24.1km/h 22mph /  35.4km/h 75% 0in /  0.0mm 5.00 W/m2
15:29 46.4 °F /  8.0 °C 38.8 °F /  3.8 °C 29.6in /  1003.6hPa WSW 8.9mph /  14.3km/h 20mph /  32.2km/h 75% 0in /  0.0mm 16.00 W/m2
15:34 45.9 °F /  7.7 °C 38.7 °F /  3.7 °C 29.6in /  1003.6hPa WNW 12.1mph /  19.5km/h 18mph /  29.0km/h 76% 0in /  0.0mm 39.00 W/m2
15:39 45 °F /  7.2 °C 38.8 °F /  3.8 °C 29.6in /  1003.6hPa West 4.9mph /  7.9km/h 14mph /  22.5km/h 79% 0in /  0.0mm 9.00 W/m2
15:44 44.4 °F /  6.9 °C 39 °F /  3.9 °C 29.6in /  1003.6hPa West 2.9mph /  4.7km/h 12mph /  19.3km/h 81% 0in /  0.0mm 5.00 W/m2
15:49 44.2 °F /  6.8 °C 38.8 °F /  3.8 °C 29.6in /  1003.6hPa West 2mph /  3.2km/h 7mph /  11.3km/h 81% 0in /  0.0mm 5.00 W/m2
15:54 44.4 °F /  6.9 °C 39.2 °F /  4.0 °C 29.6in /  1003.6hPa West 4.9mph /  7.9km/h 13mph /  20.9km/h 82% 0in /  0.0mm 0.00 W/m2
15:59 44.4 °F /  6.9 °C 39.6 °F /  4.2 °C 29.6in /  1003.6hPa WSW 8.9mph /  14.3km/h 11mph /  17.7km/h 83% 0in /  0.0mm 0.00 W/m2
16:04 44.4 °F /  6.9 °C 39.9 °F /  4.4 °C 29.6in /  1003.6hPa West 10.1mph /  16.3km/h 10mph /  16.1km/h 84% 0in /  0.0mm 0.00 W/m2
16:09 44.2 °F /  6.8 °C 39.7 °F /  4.3 °C 29.6in /  1003.6hPa West 4.9mph /  7.9km/h 6mph /  9.7km/h 84% 0in /  0.0mm 0.00 W/m2
16:14 44.2 °F /  6.8 °C 39.7 °F /  4.3 °C 29.6in /  1003.6hPa West 6.9mph /  11.1km/h 10mph /  16.1km/h 84% 0in /  0.0mm 0.00 W/m2
16:19 44.2 °F /  6.8 °C 40.1 °F /  4.5 °C 29.6in /  1003.6hPa West 4mph /  6.4km/h 9mph /  14.5km/h 85% 0in /  0.0mm 0.00 W/m2
16:24 44.4 °F /  6.9 °C 39.9 °F /  4.4 °C 29.6in /  1003.9hPa WNW 10mph /  16.1km/h 10mph /  16.1km/h 84% 0in /  0.0mm 0.00 W/m2
16:29 44.6 °F /  7.0 °C 40.1 °F /  4.5 °C 29.6in /  1003.9hPa WNW 12mph /  19.3km/h 12mph /  19.3km/h 84% 0in /  0.0mm 0.00 W/m2
16:34 44.4 °F /  6.9 °C 40.3 °F /  4.6 °C 29.6in /  1003.9hPa West 6.9mph /  11.1km/h 14mph /  22.5km/h 85% 0in /  0.0mm 0.00 W/m2
16:39 44.1 °F /  6.7 °C 39.9 °F /  4.4 °C 29.6in /  1003.9hPa West 16mph /  25.7km/h 16mph /  25.7km/h 85% 0in /  0.0mm 0.00 W/m2
16:44 43.9 °F /  6.6 °C 39.7 °F /  4.3 °C 29.6in /  1003.9hPa WNW 8.1mph /  13.0km/h 10mph /  16.1km/h 85% 0in /  0.0mm 0.00 W/m2
16:49 43.9 °F /  6.6 °C 39.7 °F /  4.3 °C 29.6in /  1003.9hPa WSW 2.9mph /  4.7km/h 15mph /  24.1km/h 85% 0in /  0.0mm 0.00 W/m2
16:54 44.1 °F /  6.7 °C 39.9 °F /  4.4 °C 29.7in /  1004.3hPa West 8.1mph /  13.0km/h 11mph /  17.7km/h 85% 0in /  0.0mm 0.00 W/m2
16:59 44.1 °F /  6.7 °C 39.6 °F /  4.2 °C 29.7in /  1004.3hPa WSW 6.9mph /  11.1km/h 13mph /  20.9km/h 84% 0in /  0.0mm 0.00 W/m2
17:04 44.2 °F /  6.8 °C 39.4 °F /  4.1 °C 29.6in /  1003.9hPa WNW 8.9mph /  14.3km/h 10mph /  16.1km/h 83% 0in /  0.0mm 0.00 W/m2
17:09 44.4 °F /  6.9 °C 39.9 °F /  4.4 °C 29.6in /  1003.9hPa West 6mph /  9.7km/h 13mph /  20.9km/h 84% 0in /  0.0mm 0.00 W/m2
17:14 44.4 °F /  6.9 °C 39.9 °F /  4.4 °C 29.7in /  1004.3hPa WNW 12.1mph /  19.5km/h 16mph /  25.7km/h 84% 0in /  0.0mm 0.00 W/m2
17:19 43.9 °F /  6.6 °C 39.7 °F /  4.3 °C 29.7in /  1004.6hPa WNW 6.9mph /  11.1km/h 14mph /  22.5km/h 85% 0in /  0.0mm 0.00 W/m2
17:24 43.7 °F /  6.5 °C 39.7 °F /  4.3 °C 29.7in /  1004.3hPa West 4.9mph /  7.9km/h 7mph /  11.3km/h 86% 0in /  0.0mm 0.00 W/m2
17:29 43.5 °F /  6.4 °C 39.6 °F /  4.2 °C 29.7in /  1004.3hPa WNW 10.1mph /  16.3km/h 10mph /  16.1km/h 86% 0in /  0.0mm 0.00 W/m2
17:34 43.5 °F /  6.4 °C 39.6 °F /  4.2 °C 29.7in /  1004.6hPa West 6mph /  9.7km/h 9mph /  14.5km/h 86% 0in /  0.0mm 0.00 W/m2
17:39 43.7 °F /  6.5 °C 39.7 °F /  4.3 °C 29.7in /  1004.6hPa West 4mph /  6.4km/h 8mph /  12.9km/h 86% 0in /  0.0mm 0.00 W/m2
17:44 43.9 °F /  6.6 °C 39.9 °F /  4.4 °C 29.7in /  1004.6hPa West 2.9mph /  4.7km/h 10mph /  16.1km/h 86% 0in /  0.0mm 0.00 W/m2
17:49 44.1 °F /  6.7 °C 40.1 °F /  4.5 °C 29.7in /  1004.6hPa West 6mph /  9.7km/h 6mph /  9.7km/h 86% 0in /  0.0mm 0.00 W/m2
17:54 44.1 °F /  6.7 °C 40.1 °F /  4.5 °C 29.7in /  1004.6hPa West 6.9mph /  11.1km/h 9mph /  14.5km/h 86% 0in /  0.0mm 0.00 W/m2
17:59 44.2 °F /  6.8 °C 40.6 °F /  4.8 °C 29.7in /  1005.0hPa West 2mph /  3.2km/h 7mph /  11.3km/h 87% 0in /  0.0mm 0.00 W/m2
18:04 44.2 °F /  6.8 °C 40.6 °F /  4.8 °C 29.7in /  1005.0hPa West 9mph /  14.5km/h 9mph /  14.5km/h 87% 0in /  0.0mm 0.00 W/m2
18:09 44.4 °F /  6.9 °C 40.8 °F /  4.9 °C 29.7in /  1005.0hPa WSW 4.9mph /  7.9km/h 8mph /  12.9km/h 87% 0in /  0.0mm 0.00 W/m2
18:14 44.6 °F /  7.0 °C 41 °F /  5.0 °C 29.7in /  1005.0hPa WNW 4.9mph /  7.9km/h 15mph /  24.1km/h 87% 0in /  0.0mm 0.00 W/m2
18:19 44.8 °F /  7.1 °C 41.2 °F /  5.1 °C 29.7in /  1005.0hPa West 6mph /  9.7km/h 11mph /  17.7km/h 87% 0in /  0.0mm 0.00 W/m2
18:24 45 °F /  7.2 °C 41 °F /  5.0 °C 29.7in /  1005.0hPa West 8.9mph /  14.3km/h 12mph /  19.3km/h 86% 0in /  0.0mm 0.00 W/m2
18:29 45 °F /  7.2 °C 41 °F /  5.0 °C 29.7in /  1005.0hPa WNW 4mph /  6.4km/h 13mph /  20.9km/h 86% 0in /  0.0mm 0.00 W/m2
18:34 45.1 °F /  7.3 °C 41.2 °F /  5.1 °C 29.7in /  1005.0hPa WNW 6.9mph /  11.1km/h 12mph /  19.3km/h 86% 0in /  0.0mm 0.00 W/m2
18:39 45.3 °F /  7.4 °C 41 °F /  5.0 °C 29.7in /  1005.3hPa WNW 10.1mph /  16.3km/h 14mph /  22.5km/h 85% 0in /  0.0mm 0.00 W/m2
18:44 45.5 °F /  7.5 °C 41.2 °F /  5.1 °C 29.7in /  1005.3hPa West 4.9mph /  7.9km/h 10mph /  16.1km/h 85% 0in /  0.0mm 0.00 W/m2
18:49 45.5 °F /  7.5 °C 41 °F /  5.0 °C 29.7in /  1005.3hPa WNW 4.9mph /  7.9km/h 9mph /  14.5km/h 84% 0in /  0.0mm 0.00 W/m2
18:54 45.7 °F /  7.6 °C 41.2 °F /  5.1 °C 29.7in /  1005.6hPa NW 8.9mph /  14.3km/h 17mph /  27.4km/h 84% 0in /  0.0mm 0.00 W/m2
18:59 45.5 °F /  7.5 °C 40.6 °F /  4.8 °C 29.7in /  1005.6hPa WNW 8.9mph /  14.3km/h 12mph /  19.3km/h 83% 0.01in /  0.3mm 0.00 W/m2
19:04 45.3 °F /  7.4 °C 40.8 °F /  4.9 °C 29.7in /  1005.6hPa WSW 4.9mph /  7.9km/h 19mph /  30.6km/h 84% 0.01in /  0.3mm 0.00 W/m2
19:09 45.1 °F /  7.3 °C 40.6 °F /  4.8 °C 29.7in /  1005.3hPa NW 2.9mph /  4.7km/h 12mph /  19.3km/h 84% 0.01in /  0.3mm 0.00 W/m2
19:14 45.1 °F /  7.3 °C 40.6 °F /  4.8 °C 29.7in /  1005.3hPa WNW 2.9mph /  4.7km/h 13mph /  20.9km/h 84% 0.01in /  0.3mm 0.00 W/m2
19:19 45 °F /  7.2 °C 40.5 °F /  4.7 °C 29.7in /  1005.3hPa West 4.9mph /  7.9km/h 11mph /  17.7km/h 84% 0.01in /  0.3mm 0.00 W/m2
19:24 45 °F /  7.2 °C 40.5 °F /  4.7 °C 29.7in /  1005.6hPa WSW 4mph /  6.4km/h 9mph /  14.5km/h 84% 0.01in /  0.3mm 0.00 W/m2
19:29 45.1 °F /  7.3 °C 40.6 °F /  4.8 °C 29.7in /  1005.3hPa West 10.1mph /  16.3km/h 14mph /  22.5km/h 84% 0.01in /  0.3mm 0.00 W/m2
19:34 45.1 °F /  7.3 °C 40.8 °F /  4.9 °C 29.7in /  1005.6hPa West 8.9mph /  14.3km/h 13mph /  20.9km/h 85% 0.01in /  0.3mm 0.00 W/m2
19:39 45.3 °F /  7.4 °C 41 °F /  5.0 °C 29.7in /  1005.3hPa WNW 12.1mph /  19.5km/h 20mph /  32.2km/h 85% 0.01in /  0.3mm 0.00 W/m2
19:44 45.1 °F /  7.3 °C 40.8 °F /  4.9 °C 29.7in /  1005.3hPa West 30mph /  48.3km/h 30mph /  48.3km/h 85% 0.02in /  0.5mm 0.00 W/m2
19:49 43.9 °F /  6.6 °C 40.3 °F /  4.6 °C 29.7in /  1005.3hPa West 13mph /  20.9km/h 26mph /  41.8km/h 87% 0.06in /  1.5mm 0.00 W/m2
19:54 43.3 °F /  6.3 °C 40.1 °F /  4.5 °C 29.7in /  1005.3hPa West 4mph /  6.4km/h 14mph /  22.5km/h 88% 0.06in /  1.5mm 0.00 W/m2
19:59 43.5 °F /  6.4 °C 40.5 °F /  4.7 °C 29.7in /  1005.6hPa West 8.1mph /  13.0km/h 14mph /  22.5km/h 89% 0.05in /  1.3mm 0.00 W/m2
20:04 44.1 °F /  6.7 °C 41.4 °F /  5.2 °C 29.7in /  1005.6hPa West 8.9mph /  14.3km/h 14mph /  22.5km/h 90% 0.05in /  1.3mm 0.00 W/m2
20:09 44.1 °F /  6.7 °C 41.4 °F /  5.2 °C 29.7in /  1005.6hPa West 4.9mph /  7.9km/h 8mph /  12.9km/h 90% 0.05in /  1.3mm 0.00 W/m2
20:14 44.2 °F /  6.8 °C 41.5 °F /  5.3 °C 29.7in /  1005.3hPa West 4.9mph /  7.9km/h 9mph /  14.5km/h 90% 0.05in /  1.3mm 0.00 W/m2
20:19 44.1 °F /  6.7 °C 41.4 °F /  5.2 °C 29.7in /  1005.3hPa West 8.1mph /  13.0km/h 10mph /  16.1km/h 90% 0.05in /  1.3mm 0.00 W/m2
20:24 44.1 °F /  6.7 °C 41.4 °F /  5.2 °C 29.7in /  1005.6hPa WSW 6mph /  9.7km/h 9mph /  14.5km/h 90% 0.05in /  1.3mm 0.00 W/m2
20:29 44.1 °F /  6.7 °C 41.4 °F /  5.2 °C 29.7in /  1005.6hPa WSW 8.1mph /  13.0km/h 13mph /  20.9km/h 90% 0.06in /  1.5mm 0.00 W/m2
20:34 44.1 °F /  6.7 °C 41.4 °F /  5.2 °C 29.7in /  1005.6hPa WSW 6.9mph /  11.1km/h 12mph /  19.3km/h 90% 0.06in /  1.5mm 0.00 W/m2
20:39 44.4 °F /  6.9 °C 41.7 °F /  5.4 °C 29.7in /  1005.3hPa WNW 11mph /  17.7km/h 14mph /  22.5km/h 90% 0.06in /  1.5mm 0.00 W/m2
20:44 44.4 °F /  6.9 °C 41.7 °F /  5.4 °C 29.7in /  1005.3hPa WSW 15mph /  24.1km/h 15mph /  24.1km/h 90% 0.04in /  1.0mm 0.00 W/m2
20:49 44.8 °F /  7.1 °C 42.1 °F /  5.6 °C 29.7in /  1005.3hPa WSW 4.9mph /  7.9km/h 10mph /  16.1km/h 90% 0.01in /  0.3mm 0.00 W/m2
20:54 45 °F /  7.2 °C 42.3 °F /  5.7 °C 29.7in /  1005.3hPa West 4mph /  6.4km/h 13mph /  20.9km/h 90% 0.01in /  0.3mm 0.00 W/m2
20:59 45 °F /  7.2 °C 42.3 °F /  5.7 °C 29.7in /  1005.3hPa SW 4mph /  6.4km/h 9mph /  14.5km/h 90% 0.01in /  0.3mm 0.00 W/m2
21:04 45 °F /  7.2 °C 42.3 °F /  5.7 °C 29.7in /  1005.3hPa WSW 6.9mph /  11.1km/h 13mph /  20.9km/h 90% 0.01in /  0.3mm 0.00 W/m2
21:09 45 °F /  7.2 °C 41.9 °F /  5.5 °C 29.7in /  1005.3hPa West 2.9mph /  4.7km/h 12mph /  19.3km/h 89% 0.01in /  0.3mm 0.00 W/m2
21:14 45 °F /  7.2 °C 41.9 °F /  5.5 °C 29.7in /  1005.3hPa West 8.1mph /  13.0km/h 11mph /  17.7km/h 89% 0.01in /  0.3mm 0.00 W/m2
21:19 45.1 °F /  7.3 °C 41.7 °F /  5.4 °C 29.7in /  1005.3hPa NNW 17mph /  27.4km/h 17mph /  27.4km/h 88% 0.01in /  0.3mm 0.00 W/m2
21:24 45.1 °F /  7.3 °C 41.7 °F /  5.4 °C 29.7in /  1005.3hPa West 8.9mph /  14.3km/h 12mph /  19.3km/h 88% 0.01in /  0.3mm 0.00 W/m2
21:29 45.3 °F /  7.4 °C 41.7 °F /  5.4 °C 29.7in /  1005.3hPa WSW 20mph /  32.2km/h 20mph /  32.2km/h 87% 0in /  0.0mm 0.00 W/m2
21:34 45.1 °F /  7.3 °C 41.5 °F /  5.3 °C 29.7in /  1005.3hPa WSW 16.1mph /  25.9km/h 16mph /  25.7km/h 87% 0in /  0.0mm 0.00 W/m2
21:39 45 °F /  7.2 °C 41.5 °F /  5.3 °C 29.7in /  1005.6hPa WNW 6mph /  9.7km/h 13mph /  20.9km/h 88% 0.02in /  0.5mm 0.00 W/m2
21:44 44.6 °F /  7.0 °C 41.5 °F /  5.3 °C 29.7in /  1005.6hPa WSW 8.1mph /  13.0km/h 23mph /  37.0km/h 89% 0.05in /  1.3mm 0.00 W/m2
21:49 44.4 °F /  6.9 °C 41.7 °F /  5.4 °C 29.7in /  1005.6hPa West 12.1mph /  19.5km/h 24mph /  38.6km/h 90% 0.06in /  1.5mm 0.00 W/m2
21:54 44.4 °F /  6.9 °C 41.7 °F /  5.4 °C 29.7in /  1005.6hPa NW 6mph /  9.7km/h 18mph /  29.0km/h 90% 0.06in /  1.5mm 0.00 W/m2
21:59 44.2 °F /  6.8 °C 41.5 °F /  5.3 °C 29.7in /  1005.6hPa WSW 11mph /  17.7km/h 14mph /  22.5km/h 90% 0.06in /  1.5mm 0.00 W/m2
22:04 44.2 °F /  6.8 °C 41.5 °F /  5.3 °C 29.7in /  1005.3hPa West 6mph /  9.7km/h 16mph /  25.7km/h 90% 0.06in /  1.5mm 0.00 W/m2
22:09 44.2 °F /  6.8 °C 41.5 °F /  5.3 °C 29.7in /  1005.6hPa WSW 2.9mph /  4.7km/h 15mph /  24.1km/h 90% 0.06in /  1.5mm 0.00 W/m2
22:14 44.4 °F /  6.9 °C 41.7 °F /  5.4 °C 29.7in /  1005.6hPa SW 6.9mph /  11.1km/h 10mph /  16.1km/h 90% 0.06in /  1.5mm 0.00 W/m2
22:19 44.8 °F /  7.1 °C 42.1 °F /  5.6 °C 29.7in /  1005.3hPa WNW 13mph /  20.9km/h 19mph /  30.6km/h 90% 0.06in /  1.5mm 0.00 W/m2
22:24 45.5 °F /  7.5 °C 42.8 °F /  6.0 °C 29.7in /  1005.3hPa West 23.9mph /  38.5km/h 24mph /  38.6km/h 90% 0.06in /  1.5mm 0.00 W/m2
22:29 45.5 °F /  7.5 °C 42.1 °F /  5.6 °C 29.7in /  1005.6hPa West 15mph /  24.1km/h 22mph /  35.4km/h 88% 0.07in /  1.8mm 0.00 W/m2
22:34 45.5 °F /  7.5 °C 42.1 °F /  5.6 °C 29.7in /  1005.6hPa WSW 10.1mph /  16.3km/h 21mph /  33.8km/h 88% 0.06in /  1.5mm 0.00 W/m2
22:39 45.5 °F /  7.5 °C 42.1 °F /  5.6 °C 29.7in /  1005.6hPa West 4.9mph /  7.9km/h 13mph /  20.9km/h 88% 0.04in /  1.0mm 0.00 W/m2
22:44 45.5 °F /  7.5 °C 42.1 °F /  5.6 °C 29.7in /  1005.6hPa WNW 6mph /  9.7km/h 9mph /  14.5km/h 88% 0.01in /  0.3mm 0.00 W/m2
22:49 45.5 °F /  7.5 °C 42.1 °F /  5.6 °C 29.7in /  1005.6hPa West 0.9mph /  1.4km/h 16mph /  25.7km/h 88% 0.01in /  0.3mm 0.00 W/m2
22:54 45.5 °F /  7.5 °C 42.4 °F /  5.8 °C 29.7in /  1005.6hPa WNW 4.9mph /  7.9km/h 18mph /  29.0km/h 89% 0.04in /  1.0mm 0.00 W/m2
22:59 45.5 °F /  7.5 °C 42.8 °F /  6.0 °C 29.7in /  1005.6hPa WSW 2.9mph /  4.7km/h 12mph /  19.3km/h 90% 0.04in /  1.0mm 0.00 W/m2
23:04 45.3 °F /  7.4 °C 42.6 °F /  5.9 °C 29.7in /  1005.6hPa WNW 6mph /  9.7km/h 14mph /  22.5km/h 90% 0.04in /  1.0mm 0.00 W/m2
23:09 45.3 °F /  7.4 °C 42.8 °F /  6.0 °C 29.7in /  1005.6hPa West 8.1mph /  13.0km/h 15mph /  24.1km/h 91% 0.04in /  1.0mm 0.00 W/m2
23:14 45.5 °F /  7.5 °C 43 °F /  6.1 °C 29.7in /  1005.6hPa West 2.9mph /  4.7km/h 16mph /  25.7km/h 91% 0.04in /  1.0mm 0.00 W/m2
23:19 45.5 °F /  7.5 °C 42.8 °F /  6.0 °C 29.7in /  1005.6hPa WSW 8.9mph /  14.3km/h 13mph /  20.9km/h 90% 0.04in /  1.0mm 0.00 W/m2
23:24 45.5 °F /  7.5 °C 42.8 °F /  6.0 °C 29.7in /  1005.6hPa NW 4mph /  6.4km/h 10mph /  16.1km/h 90% 0.04in /  1.0mm 0.00 W/m2
23:29 45.9 °F /  7.7 °C 43.2 °F /  6.2 °C 29.7in /  1005.6hPa West 10.1mph /  16.3km/h 16mph /  25.7km/h 90% 0.04in /  1.0mm 0.00 W/m2
23:34 46 °F /  7.8 °C 43.3 °F /  6.3 °C 29.7in /  1005.6hPa SW 6.9mph /  11.1km/h 19mph /  30.6km/h 90% 0.04in /  1.0mm 0.00 W/m2
23:39 46 °F /  7.8 °C 43 °F /  6.1 °C 29.7in /  1005.6hPa West 8.9mph /  14.3km/h 14mph /  22.5km/h 89% 0.04in /  1.0mm 0.00 W/m2
23:44 46 °F /  7.8 °C 43 °F /  6.1 °C 29.7in /  1005.6hPa West 4mph /  6.4km/h 11mph /  17.7km/h 89% 0.04in /  1.0mm 0.00 W/m2
23:49 46 °F /  7.8 °C 43 °F /  6.1 °C 29.7in /  1005.6hPa West 8.1mph /  13.0km/h 14mph /  22.5km/h 89% 0.04in /  1.0mm 0.00 W/m2
23:54 46.2 °F /  7.9 °C 43.2 °F /  6.2 °C 29.7in /  1005.6hPa WSW 4.9mph /  7.9km/h 9mph /  14.5km/h 89% 0.01in /  0.3mm 0.00 W/m2
23:59 46.2 °F /  7.9 °C 43.2 °F /  6.2 °C 29.7in /  1005.6hPa SW 6.9mph /  11.1km/h 7mph /  11.3km/h 89% 0in /  0.0mm 0.00 W/m2